Time;durP1;ratioP1;P1;durP2;ratioP2;P2;SDS_P1;SDS_P2;PMS_P1;PMS_P2;Temp;Humidity;BMP_temperature;BMP_pressure;BME280_temperature;BME280_humidity;BME280_pressure;Samples;Min_cycle;Max_cycle;Signal;HPM_P1;HPM_P2
2024/01/25 00:02:06;;;;;;;1.50;0.70;;;9.00;99.90;;;;;;5093161;28;20205;-61
2024/01/25 00:04:32;;;;;;;1.00;0.90;;;9.10;99.90;;;;;;5094143;28;20193;-61
2024/01/25 00:06:58;;;;;;;3.30;0.70;;;9.10;99.90;;;;;;5094813;28;20189;-61
2024/01/25 00:09:23;;;;;;;0.83;0.83;;;9.10;99.90;;;;;;5093301;28;20238;-61
2024/01/25 00:11:49;;;;;;;0.80;0.80;;;9.10;99.90;;;;;;5094155;28;20248;-61
2024/01/25 00:14:15;;;;;;;2.10;0.70;;;9.10;99.90;;;;;;5094689;28;20203;-60
2024/01/25 00:16:41;;;;;;;0.50;0.50;;;9.00;99.90;;;;;;5098430;28;20189;-61
2024/01/25 00:19:07;;;;;;;1.88;1.00;;;9.10;99.90;;;;;;5098809;28;20650;-61
2024/01/25 00:21:33;;;;;;;1.95;0.85;;;9.20;99.90;;;;;;5097637;28;20230;-61
2024/01/25 00:23:59;;;;;;;2.10;0.97;;;9.10;99.90;;;;;;5096132;28;20209;-61
2024/01/25 00:26:24;;;;;;;8.70;0.80;;;9.10;99.90;;;;;;5096878;28;20262;-61
2024/01/25 00:28:50;;;;;;;0.77;0.77;;;9.20;99.90;;;;;;5096932;28;20238;-61
2024/01/25 00:31:16;;;;;;;0.70;0.70;;;9.20;99.90;;;;;;5096432;28;20166;-61
2024/01/25 00:33:41;;;;;;;5.20;1.20;;;9.10;99.90;;;;;;5098611;28;20184;-61
2024/01/25 00:36:08;;;;;;;1.67;1.20;;;9.00;99.90;;;;;;5096443;28;20207;-61
2024/01/25 00:38:34;;;;;;;2.60;1.58;;;9.00;99.90;;;;;;5097063;28;20176;-61
2024/01/25 00:41:00;;;;;;;0.90;0.80;;;9.00;99.90;;;;;;5096307;28;20208;-61
2024/01/25 00:43:26;;;;;;;1.10;0.85;;;9.10;99.90;;;;;;5097772;28;20238;-61
2024/01/25 00:45:52;;;;;;;2.78;1.00;;;9.10;99.90;;;;;;5096798;28;20278;-61
2024/01/25 00:48:18;;;;;;;3.05;0.90;;;9.20;99.90;;;;;;5096393;28;20266;-61
2024/01/25 00:50:44;;;;;;;0.82;0.82;;;9.20;99.90;;;;;;5096093;28;20174;-61
2024/01/25 00:53:11;;;;;;;3.70;0.90;;;9.20;99.90;;;;;;5096394;28;20651;-61
2024/01/25 00:55:36;;;;;;;2.42;1.15;;;9.10;99.90;;;;;;5095067;28;20228;-61
2024/01/25 00:58:02;;;;;;;2.30;1.07;;;9.00;99.90;;;;;;5097509;28;20262;-61
2024/01/25 01:00:28;;;;;;;2.30;0.60;;;9.10;99.90;;;;;;5095578;28;20452;-61
2024/01/25 01:02:57;;;;;;;1.30;1.10;;;9.00;99.90;;;;;;5095924;28;20458;-61
2024/01/25 01:05:23;;;;;;;0.80;0.80;;;9.10;99.90;;;;;;5096485;28;20828;-61
2024/01/25 01:07:49;;;;;;;2.60;0.90;;;9.10;99.90;;;;;;5095328;28;20176;-61
2024/01/25 01:10:15;;;;;;;0.63;0.63;;;9.10;99.90;;;;;;5096239;28;20399;-61
2024/01/25 01:12:41;;;;;;;1.30;0.90;;;9.00;99.90;;;;;;5096200;28;20636;-61
2024/01/25 01:15:06;;;;;;;1.20;0.90;;;9.10;99.90;;;;;;5097118;28;20597;-61
2024/01/25 01:17:32;;;;;;;1.93;1.20;;;9.20;99.90;;;;;;5096394;28;20634;-61
2024/01/25 01:19:58;;;;;;;1.17;1.17;;;9.20;99.90;;;;;;5096290;28;20461;-61
2024/01/25 01:22:23;;;;;;;1.07;0.63;;;9.10;99.90;;;;;;5096503;28;20227;-61
2024/01/25 01:24:49;;;;;;;1.53;0.80;;;9.00;99.90;;;;;;5097620;28;20189;-62
2024/01/25 01:27:14;;;;;;;1.70;0.67;;;8.80;99.90;;;;;;5099301;28;20216;-62
2024/01/25 01:29:41;;;;;;;0.50;0.50;;;8.70;99.90;;;;;;5102387;22;20229;-61
2024/01/25 01:32:06;;;;;;;1.15;0.68;;;8.80;99.90;;;;;;5072341;28;20189;-61
2024/01/25 01:34:32;;;;;;;1.53;0.93;;;8.90;99.90;;;;;;5073008;28;20211;-61
2024/01/25 01:36:58;;;;;;;1.03;1.03;;;8.90;99.90;;;;;;5072928;28;20181;-61
2024/01/25 01:39:25;;;;;;;0.70;0.70;;;9.00;99.90;;;;;;5073002;28;20212;-60
2024/01/25 01:41:50;;;;;;;0.82;0.80;;;9.00;99.90;;;;;;5072617;28;20170;-61
2024/01/25 01:44:16;;;;;;;1.37;0.70;;;9.10;99.90;;;;;;5072800;28;20216;-60
2024/01/25 01:46:42;;;;;;;1.80;1.00;;;9.10;99.90;;;;;;5072716;28;20197;-61
2024/01/25 01:49:11;;;;;;;0.68;0.68;;;9.10;99.90;;;;;;5072556;28;20269;-61
2024/01/25 01:51:38;;;;;;;0.70;0.60;;;9.10;99.90;;;;;;5072384;28;20667;-61
2024/01/25 01:54:06;;;;;;;0.50;0.50;;;9.10;99.90;;;;;;5072455;28;20619;-61
2024/01/25 01:56:33;;;;;;;0.60;0.60;;;9.00;99.90;;;;;;5072494;28;20170;-61
2024/01/25 01:59:04;;;;;;;0.70;0.55;;;9.00;99.90;;;;;;5072353;28;20687;-61
2024/01/25 02:01:31;;;;;;;0.52;0.52;;;8.90;99.90;;;;;;5072313;28;20178;-61
2024/01/25 02:03:56;;;;;;;0.60;0.60;;;9.00;99.90;;;;;;5072161;28;20197;-61
2024/01/25 02:06:23;;;;;;;0.60;0.60;;;9.00;99.90;;;;;;5072283;28;20173;-61
2024/01/25 02:08:50;;;;;;;0.90;0.90;;;9.00;99.90;;;;;;5072403;28;20181;-61
2024/01/25 02:11:17;;;;;;;0.40;0.40;;;9.00;99.90;;;;;;5072165;28;20261;-61
2024/01/25 02:13:42;;;;;;;0.85;0.80;;;9.00;99.90;;;;;;5072071;28;20178;-61
2024/01/25 02:16:08;;;;;;;0.50;0.50;;;8.90;99.90;;;;;;5072149;28;20185;-61
2024/01/25 02:18:34;;;;;;;0.60;0.60;;;8.90;99.90;;;;;;5072028;28;20276;-61
2024/01/25 02:21:00;;;;;;;1.17;0.97;;;9.00;99.90;;;;;;5071864;28;20489;-61
2024/01/25 02:23:26;;;;;;;1.23;1.03;;;9.00;99.90;;;;;;5071846;28;20258;-61
2024/01/25 02:25:51;;;;;;;0.70;0.60;;;9.00;99.90;;;;;;5072067;28;20412;-61
2024/01/25 02:28:17;;;;;;;0.77;0.60;;;9.00;99.90;;;;;;5071759;28;20639;-61
2024/01/25 02:30:43;;;;;;;0.67;0.47;;;9.10;99.90;;;;;;5071779;28;20181;-61
2024/01/25 02:33:08;;;;;;;0.70;0.50;;;9.00;99.90;;;;;;5071597;28;20177;-61
2024/01/25 02:35:34;;;;;;;1.03;0.40;;;9.10;99.90;;;;;;5071804;28;20173;-61
2024/01/25 02:38:00;;;;;;;0.40;0.40;;;9.10;99.90;;;;;;5071776;28;20234;-61
2024/01/25 02:40:25;;;;;;;1.13;0.67;;;9.10;99.90;;;;;;5071651;28;20220;-61
2024/01/25 02:42:51;;;;;;;0.93;0.93;;;9.00;99.90;;;;;;5071426;28;20233;-61
2024/01/25 02:45:17;;;;;;;0.40;0.40;;;8.90;99.90;;;;;;5071713;28;20176;-61
2024/01/25 02:47:42;;;;;;;1.53;0.50;;;9.00;99.90;;;;;;5071635;28;20174;-61
2024/01/25 02:50:08;;;;;;;0.70;0.40;;;9.00;99.90;;;;;;5071428;28;20232;-61
2024/01/25 02:52:34;;;;;;;3.17;0.47;;;9.00;99.90;;;;;;5071534;28;20541;-61
2024/01/25 02:55:00;;;;;;;0.40;0.40;;;9.00;99.90;;;;;;5071586;28;20184;-61
2024/01/25 02:57:26;;;;;;;1.57;0.70;;;9.00;99.90;;;;;;5071551;28;20181;-61
2024/01/25 02:59:51;;;;;;;1.27;0.40;;;9.00;99.90;;;;;;5071376;28;20549;-61
2024/01/25 03:02:19;;;;;;;0.40;0.40;;;9.10;99.90;;;;;;5071091;28;20762;-61
2024/01/25 03:04:45;;;;;;;0.50;0.50;;;9.10;99.90;;;;;;5071331;28;20180;-61
2024/01/25 03:07:11;;;;;;;2.65;0.50;;;9.10;99.90;;;;;;5071505;28;20394;-61
2024/01/25 03:09:37;;;;;;;0.60;0.40;;;9.10;99.90;;;;;;5071370;28;20294;-61
2024/01/25 03:12:02;;;;;;;0.40;0.40;;;9.00;99.90;;;;;;5071128;28;20186;-61
2024/01/25 03:14:28;;;;;;;0.60;0.40;;;9.00;99.90;;;;;;5071495;28;20165;-61
2024/01/25 03:16:54;;;;;;;0.60;0.43;;;9.10;99.90;;;;;;5071409;28;20663;-61
2024/01/25 03:19:19;;;;;;;0.40;0.40;;;9.10;99.90;;;;;;5054229;28;20240;-61
2024/01/25 03:21:45;;;;;;;1.63;0.40;;;9.00;99.90;;;;;;5051084;28;20167;-61
2024/01/25 03:24:11;;;;;;;0.40;0.40;;;9.00;99.90;;;;;;5051231;28;20444;-61
2024/01/25 03:26:37;;;;;;;0.40;0.40;;;9.00;99.90;;;;;;5051288;28;20170;-61
2024/01/25 03:29:04;;;;;;;0.33;0.33;;;9.10;99.90;;;;;;5050917;28;20228;-61
2024/01/25 03:31:30;;;;;;;1.15;0.43;;;9.10;99.90;;;;;;5050970;28;20177;-60
2024/01/25 03:33:55;;;;;;;0.60;0.50;;;9.10;99.90;;;;;;5051042;28;20174;-61
2024/01/25 03:36:21;;;;;;;1.80;0.43;;;9.00;99.90;;;;;;5051183;28;20499;-61
2024/01/25 03:38:46;;;;;;;0.30;0.30;;;9.10;99.90;;;;;;5051081;28;20186;-61
2024/01/25 03:41:12;;;;;;;0.33;0.33;;;9.10;99.90;;;;;;5051352;28;20672;-60
2024/01/25 03:43:38;;;;;;;1.37;0.53;;;9.10;99.90;;;;;;5050874;28;20194;-61
2024/01/25 03:46:04;;;;;;;2.00;0.73;;;9.20;99.90;;;;;;5051026;28;20170;-61
2024/01/25 03:48:30;;;;;;;1.97;0.60;;;9.20;99.90;;;;;;5049533;28;20167;-61
2024/01/25 03:50:56;;;;;;;0.50;0.50;;;9.20;99.90;;;;;;5053938;28;20193;-61
2024/01/25 03:53:23;;;;;;;0.40;0.40;;;9.20;99.90;;;;;;5054738;28;20213;-61
2024/01/25 03:55:49;;;;;;;0.50;0.50;;;9.20;99.90;;;;;;5054960;28;20249;-61
2024/01/25 03:58:15;;;;;;;0.40;0.40;;;9.10;99.90;;;;;;5054621;28;20325;-61
2024/01/25 04:00:41;;;;;;;0.90;0.45;;;9.00;99.90;;;;;;5054578;28;20217;-61
2024/01/25 04:03:06;;;;;;;0.83;0.50;;;9.00;99.90;;;;;;5054413;28;20226;-61
2024/01/25 04:05:32;;;;;;;0.60;0.60;;;9.10;99.90;;;;;;5054652;28;20177;-61
2024/01/25 04:07:58;;;;;;;0.40;0.40;;;9.20;99.90;;;;;;5053539;28;20163;-61
2024/01/25 04:10:23;;;;;;;0.70;0.60;;;9.20;99.90;;;;;;5054493;28;20194;-61
2024/01/25 04:12:49;;;;;;;0.60;0.50;;;9.20;99.90;;;;;;5054745;28;20405;-61
2024/01/25 04:15:15;;;;;;;0.80;0.80;;;9.30;99.90;;;;;;5054440;28;20228;-61
2024/01/25 04:17:40;;;;;;;0.70;0.70;;;9.30;99.90;;;;;;5054374;28;20186;-61
2024/01/25 04:20:07;;;;;;;0.40;0.40;;;9.30;99.90;;;;;;5054227;28;20194;-61
2024/01/25 04:22:32;;;;;;;2.05;0.70;;;9.30;99.90;;;;;;5054203;28;20225;-61
2024/01/25 04:24:58;;;;;;;0.40;0.40;;;9.20;99.90;;;;;;5054325;28;20209;-61
2024/01/25 04:27:24;;;;;;;0.30;0.30;;;9.20;99.90;;;;;;5054294;28;20170;-61
2024/01/25 04:29:49;;;;;;;0.50;0.40;;;9.20;99.90;;;;;;5054000;28;20204;-61
2024/01/25 04:32:15;;;;;;;0.40;0.40;;;9.20;99.90;;;;;;5053772;28;20166;-61
2024/01/25 04:34:41;;;;;;;1.80;0.53;;;9.30;99.90;;;;;;5054058;28;20650;-61
2024/01/25 04:37:06;;;;;;;0.40;0.40;;;9.40;99.90;;;;;;5054090;28;20224;-61
2024/01/25 04:39:32;;;;;;;0.60;0.60;;;9.40;99.90;;;;;;5053970;28;20802;-61
2024/01/25 04:41:57;;;;;;;2.73;0.50;;;9.40;99.90;;;;;;5053710;28;20166;-61
2024/01/25 04:44:23;;;;;;;0.40;0.40;;;9.40;99.90;;;;;;5054050;28;20244;-61
2024/01/25 04:46:49;;;;;;;0.40;0.40;;;9.40;99.90;;;;;;5054252;28;20181;-61
2024/01/25 04:49:14;;;;;;;0.93;0.93;;;9.40;99.90;;;;;;5053858;28;20252;-61
2024/01/25 04:51:40;;;;;;;0.40;0.40;;;9.40;99.90;;;;;;5053731;28;20548;-61
2024/01/25 04:54:07;;;;;;;0.60;0.60;;;9.40;99.90;;;;;;5053667;28;20181;-61
2024/01/25 04:56:32;;;;;;;0.32;0.32;;;9.40;99.90;;;;;;5053716;28;20178;-61
2024/01/25 04:58:58;;;;;;;0.37;0.37;;;9.40;99.90;;;;;;5053577;28;20209;-61
2024/01/25 05:01:24;;;;;;;0.40;0.40;;;9.40;99.90;;;;;;5052182;28;20178;-61
2024/01/25 05:03:49;;;;;;;0.40;0.40;;;9.50;99.90;;;;;;5053406;28;20724;-61
2024/01/25 05:06:15;;;;;;;0.30;0.30;;;9.50;99.90;;;;;;5053586;28;20206;-61
2024/01/25 05:08:43;;;;;;;0.40;0.40;;;9.50;99.90;;;;;;5053578;28;20216;-61
2024/01/25 05:11:08;;;;;;;0.50;0.40;;;9.50;99.90;;;;;;5053375;28;20193;-61
2024/01/25 05:13:35;;;;;;;0.70;0.70;;;9.50;99.90;;;;;;5053233;28;20178;-61
2024/01/25 05:16:01;;;;;;;0.50;0.40;;;9.50;99.90;;;;;;5053352;28;20523;-61
2024/01/25 05:18:26;;;;;;;0.30;0.30;;;9.50;99.90;;;;;;5053203;28;20185;-61
2024/01/25 05:20:52;;;;;;;1.90;0.60;;;9.50;99.90;;;;;;5053130;28;20170;-61
2024/01/25 05:23:17;;;;;;;0.40;0.40;;;9.60;99.90;;;;;;5053155;28;20202;-61
2024/01/25 05:25:43;;;;;;;0.43;0.43;;;9.60;99.90;;;;;;5053357;28;20181;-61
2024/01/25 05:28:09;;;;;;;0.40;0.40;;;9.60;99.90;;;;;;5053170;28;20250;-61
2024/01/25 05:30:34;;;;;;;0.40;0.40;;;9.60;99.90;;;;;;5052659;28;20214;-61
2024/01/25 05:33:00;;;;;;;0.50;0.50;;;9.30;99.90;;;;;;5053149;28;20742;-61
2024/01/25 05:35:26;;;;;;;0.50;0.50;;;9.20;99.90;;;;;;5053021;28;20169;-61
2024/01/25 05:37:51;;;;;;;0.40;0.40;;;9.30;99.90;;;;;;5052988;28;20257;-61
2024/01/25 05:40:18;;;;;;;0.40;0.40;;;9.30;99.90;;;;;;5052840;28;20612;-61
2024/01/25 05:42:44;;;;;;;0.30;0.30;;;9.40;99.90;;;;;;5052512;28;20190;-61
2024/01/25 05:45:10;;;;;;;0.30;0.30;;;9.40;99.90;;;;;;5052713;28;20162;-60
2024/01/25 05:47:35;;;;;;;0.40;0.40;;;9.40;99.90;;;;;;5052710;28;20181;-61
2024/01/25 05:50:02;;;;;;;0.57;0.57;;;9.50;99.90;;;;;;5053000;28;20198;-61
2024/01/25 05:52:29;;;;;;;0.45;0.45;;;9.60;99.90;;;;;;5052529;28;20174;-61
2024/01/25 05:54:54;;;;;;;0.50;0.50;;;9.60;99.90;;;;;;5052652;28;20173;-61
2024/01/25 05:57:20;;;;;;;0.47;0.47;;;9.50;99.90;;;;;;5052539;28;20178;-60
2024/01/25 05:59:47;;;;;;;0.50;0.40;;;9.50;99.90;;;;;;5052306;28;20213;-61
2024/01/25 06:02:13;;;;;;;0.47;0.47;;;9.50;99.90;;;;;;5052037;28;20235;-61
2024/01/25 06:04:39;;;;;;;0.40;0.40;;;9.40;99.90;;;;;;5052432;28;20649;-61
2024/01/25 06:07:05;;;;;;;0.40;0.40;;;9.40;99.90;;;;;;5052528;28;20178;-61
2024/01/25 06:09:31;;;;;;;0.30;0.30;;;9.50;99.90;;;;;;5052317;28;20244;-61
2024/01/25 06:11:57;;;;;;;0.32;0.32;;;9.60;99.90;;;;;;5051612;28;20178;-61
2024/01/25 06:14:24;;;;;;;1.27;0.60;;;9.50;99.90;;;;;;5052253;28;20201;-61
2024/01/25 06:16:50;;;;;;;0.30;0.30;;;9.40;99.90;;;;;;5052199;28;20873;-61
2024/01/25 06:19:15;;;;;;;0.30;0.30;;;9.30;99.90;;;;;;5052054;28;20194;-61
2024/01/25 06:21:41;;;;;;;0.40;0.40;;;9.40;99.90;;;;;;5052035;28;20178;-61
2024/01/25 06:24:07;;;;;;;0.40;0.40;;;9.40;99.90;;;;;;5051906;28;20209;-61
2024/01/25 06:26:33;;;;;;;0.30;0.30;;;9.40;99.90;;;;;;5051962;28;20170;-61
2024/01/25 06:28:59;;;;;;;0.40;0.40;;;9.40;99.90;;;;;;5051888;28;20260;-61
2024/01/25 06:31:25;;;;;;;0.47;0.30;;;9.30;99.90;;;;;;5051753;28;20166;-60
2024/01/25 06:33:52;;;;;;;0.50;0.50;;;9.40;99.90;;;;;;5051802;28;20170;-61
2024/01/25 06:36:21;;;;;;;0.40;0.40;;;9.40;99.90;;;;;;5051884;28;20174;-61
2024/01/25 06:38:47;;;;;;;0.40;0.40;;;9.40;99.90;;;;;;5054278;28;20286;-60
2024/01/25 06:41:13;;;;;;;0.50;0.50;;;9.30;99.90;;;;;;5051631;28;20302;-61
2024/01/25 06:43:40;;;;;;;0.60;0.60;;;9.30;99.90;;;;;;5051607;28;20212;-61
2024/01/25 06:46:06;;;;;;;0.40;0.40;;;9.30;99.90;;;;;;5051609;28;20500;-61
2024/01/25 06:48:32;;;;;;;0.40;0.40;;;9.40;99.90;;;;;;5051533;28;20209;-61
2024/01/25 06:50:57;;;;;;;0.40;0.40;;;9.40;99.90;;;;;;5051520;28;20170;-61
2024/01/25 06:53:23;;;;;;;0.40;0.40;;;9.40;99.90;;;;;;5051591;28;20181;-61
2024/01/25 06:55:49;;;;;;;0.40;0.40;;;9.40;99.90;;;;;;5051573;28;20569;-61
2024/01/25 06:58:14;;;;;;;0.47;0.37;;;9.40;99.90;;;;;;5051671;28;20731;-61
2024/01/25 07:00:42;;;;;;;0.40;0.40;;;9.40;99.90;;;;;;5053893;28;20568;-61
2024/01/25 07:03:08;;;;;;;0.35;0.35;;;9.40;99.90;;;;;;5059826;28;20190;-61
2024/01/25 07:05:35;;;;;;;0.40;0.40;;;9.40;99.90;;;;;;5062832;28;20174;-61
2024/01/25 07:08:01;;;;;;;0.65;0.60;;;9.30;99.90;;;;;;5071459;28;20196;-61
2024/01/25 07:10:27;;;;;;;1.95;0.40;;;9.30;99.90;;;;;;5071627;28;20589;-61
2024/01/25 07:12:53;;;;;;;0.70;0.53;;;9.40;99.90;;;;;;5071367;28;20176;-61
2024/01/25 07:15:20;;;;;;;0.75;0.60;;;9.40;99.90;;;;;;5068506;28;20201;-61
2024/01/25 07:17:45;;;;;;;1.25;0.65;;;9.30;99.90;;;;;;5061895;28;20173;-61
2024/01/25 07:20:11;;;;;;;0.40;0.40;;;9.30;99.90;;;;;;5060099;28;20205;-61
2024/01/25 07:22:37;;;;;;;0.80;0.63;;;9.30;99.90;;;;;;5071023;28;20256;-61
2024/01/25 07:25:02;;;;;;;0.57;0.57;;;9.40;99.90;;;;;;5073091;28;20416;-61
2024/01/25 07:27:28;;;;;;;3.07;0.67;;;9.40;99.90;;;;;;5075549;28;20165;-60
2024/01/25 07:29:54;;;;;;;20.13;15.10;;;9.40;99.90;;;;;;5132572;22;20439;-64
2024/01/25 07:32:20;;;;;;;9.00;7.17;;;9.40;99.90;;;;;;5078406;28;20226;-63
2024/01/25 07:34:46;;;;;;;2.25;1.42;;;9.40;99.90;;;;;;5081487;28;20174;-63
2024/01/25 07:37:12;;;;;;;0.80;0.80;;;9.30;99.90;;;;;;5076198;28;20203;-63
2024/01/25 07:39:38;;;;;;;0.60;0.50;;;9.40;99.90;;;;;;5073688;28;20400;-64
2024/01/25 07:42:04;;;;;;;0.47;0.47;;;9.40;99.90;;;;;;5057420;28;20265;-64
2024/01/25 07:44:30;;;;;;;0.50;0.50;;;9.50;99.90;;;;;;5059061;28;20201;-64
2024/01/25 07:46:55;;;;;;;0.73;0.73;;;9.50;99.90;;;;;;5073670;28;20227;-64
2024/01/25 07:49:21;;;;;;;0.60;0.60;;;9.40;99.90;;;;;;5073393;28;20531;-64
2024/01/25 07:51:46;;;;;;;0.53;0.50;;;9.50;99.90;;;;;;5073143;28;20185;-64
2024/01/25 07:54:13;;;;;;;1.00;0.70;;;9.50;99.90;;;;;;5073669;28;20166;-64
2024/01/25 07:56:38;;;;;;;0.85;0.77;;;9.30;99.90;;;;;;5073458;28;20248;-64
2024/01/25 07:59:04;;;;;;;0.50;0.50;;;9.40;99.90;;;;;;5073497;28;20273;-64
2024/01/25 08:01:30;;;;;;;0.90;0.47;;;9.40;99.90;;;;;;5073248;28;20208;-64
2024/01/25 08:03:56;;;;;;;0.40;0.40;;;9.40;99.90;;;;;;5073242;28;20216;-64
2024/01/25 08:06:22;;;;;;;0.40;0.40;;;9.40;99.90;;;;;;5073448;28;20572;-62
2024/01/25 08:08:48;;;;;;;0.77;0.75;;;9.50;99.90;;;;;;5073415;28;20814;-63
2024/01/25 08:11:18;;;;;;;3.40;2.30;;;9.40;99.90;;;;;;5073138;28;20193;-64
2024/01/25 08:13:44;;;;;;;1.90;1.57;;;9.40;99.90;;;;;;5072990;28;20177;-63
2024/01/25 08:16:13;;;;;;;2.50;2.30;;;9.40;99.90;;;;;;5073256;28;20486;-63
2024/01/25 08:18:39;;;;;;;2.70;2.20;;;9.50;99.90;;;;;;5073495;28;20311;-64
2024/01/25 08:21:05;;;;;;;2.92;2.22;;;9.60;99.90;;;;;;5055250;28;20595;-62
2024/01/25 08:23:31;;;;;;;3.40;2.70;;;9.70;99.90;;;;;;5073069;28;20197;-63
2024/01/25 08:25:57;;;;;;;6.40;2.13;;;9.60;99.90;;;;;;5073205;28;20412;-63
2024/01/25 08:28:22;;;;;;;1.53;1.37;;;9.60;99.90;;;;;;5073204;28;20174;-63
2024/01/25 08:30:48;;;;;;;1.27;0.93;;;9.70;99.90;;;;;;5033384;28;1128828;-63
2024/01/25 08:33:14;;;;;;;1.27;1.17;;;9.70;99.90;;;;;;5074002;28;20177;-63
2024/01/25 08:35:40;;;;;;;0.50;0.50;;;9.80;99.90;;;;;;5073953;28;20340;-64
2024/01/25 08:38:06;;;;;;;0.53;0.50;;;9.80;99.90;;;;;;5074023;28;20776;-63
2024/01/25 08:40:33;;;;;;;0.60;0.50;;;9.80;99.90;;;;;;5064124;28;20440;-64
2024/01/25 08:42:59;;;;;;;1.27;1.17;;;9.80;99.90;;;;;;5054044;28;20551;-64
2024/01/25 08:45:25;;;;;;;1.30;1.20;;;9.90;99.90;;;;;;5053926;28;20551;-63
2024/01/25 08:47:52;;;;;;;1.00;0.90;;;9.90;99.90;;;;;;5054120;28;20183;-64
2024/01/25 08:50:17;;;;;;;0.67;0.67;;;9.90;99.90;;;;;;5053868;28;20277;-64
2024/01/25 08:52:43;;;;;;;0.60;0.60;;;9.60;99.90;;;;;;5053696;28;20779;-63
2024/01/25 08:55:10;;;;;;;0.75;0.75;;;9.60;99.90;;;;;;5053939;28;20522;-64
2024/01/25 08:57:36;;;;;;;0.70;0.60;;;9.70;99.90;;;;;;5054247;28;20174;-64
2024/01/25 09:00:02;;;;;;;1.77;1.58;;;9.80;99.90;;;;;;5053450;28;20170;-63
2024/01/25 09:02:29;;;;;;;1.25;1.13;;;9.90;99.90;;;;;;5053471;28;20227;-64
2024/01/25 09:04:55;;;;;;;1.50;1.40;;;10.00;99.90;;;;;;5053450;28;20162;-63
2024/01/25 09:07:22;;;;;;;1.23;1.10;;;10.00;99.90;;;;;;5053875;28;20171;-63
2024/01/25 09:09:48;;;;;;;2.17;1.53;;;10.10;99.90;;;;;;5053467;28;20245;-63
2024/01/25 09:12:15;;;;;;;0.73;0.73;;;10.20;99.90;;;;;;5053168;28;20404;-64
2024/01/25 09:14:42;;;;;;;2.60;1.90;;;10.20;99.90;;;;;;5053501;28;20413;-63
2024/01/25 09:17:09;;;;;;;1.60;1.50;;;10.30;99.90;;;;;;5053361;28;20938;-64
2024/01/25 09:19:35;;;;;;;1.83;1.73;;;10.40;99.90;;;;;;5053238;28;20432;-63
2024/01/25 09:22:04;;;;;;;0.63;0.63;;;10.40;99.90;;;;;;5053308;28;20487;-63
2024/01/25 09:24:31;;;;;;;0.60;0.60;;;10.40;99.90;;;;;;5053308;28;20448;-63
2024/01/25 09:26:58;;;;;;;1.00;1.00;;;10.30;99.90;;;;;;5053063;28;21083;-63
2024/01/25 09:29:24;;;;;;;2.70;1.40;;;10.20;99.90;;;;;;5053285;28;20765;-63
2024/01/25 09:31:50;;;;;;;1.57;0.70;;;10.20;99.90;;;;;;5052925;28;20455;-62
2024/01/25 09:34:15;;;;;;;0.97;0.97;;;10.10;99.90;;;;;;5053698;28;20233;-63
2024/01/25 09:36:41;;;;;;;0.60;0.60;;;10.30;99.90;;;;;;5053393;28;20200;-62
2024/01/25 09:39:08;;;;;;;1.83;0.60;;;10.20;99.90;;;;;;5053231;28;20178;-63
2024/01/25 09:41:33;;;;;;;0.40;0.40;;;10.30;99.90;;;;;;5052681;28;20740;-63
2024/01/25 09:43:59;;;;;;;0.60;0.60;;;10.30;99.90;;;;;;5052931;28;20460;-63
2024/01/25 09:46:26;;;;;;;1.10;1.10;;;10.40;99.90;;;;;;5052692;28;20166;-63
2024/01/25 09:48:52;;;;;;;1.70;1.60;;;10.60;99.90;;;;;;5052242;28;20248;-63
2024/01/25 09:51:17;;;;;;;0.77;0.77;;;10.60;99.90;;;;;;5052592;28;20945;-63
2024/01/25 09:53:45;;;;;;;1.23;1.13;;;10.50;99.90;;;;;;5034798;28;20174;-63
2024/01/25 09:56:12;;;;;;;1.43;1.00;;;10.50;99.90;;;;;;5052527;28;20478;-63
2024/01/25 09:58:42;;;;;;;0.73;0.70;;;10.60;99.90;;;;;;5052617;28;20428;-64
2024/01/25 10:01:12;;;;;;;1.30;1.20;;;10.70;99.90;;;;;;5052427;28;20431;-64
2024/01/25 10:03:42;;;;;;;0.80;0.80;;;10.70;99.90;;;;;;5052573;28;20468;-64
2024/01/25 10:06:08;;;;;;;1.03;0.80;;;10.90;99.90;;;;;;5052439;28;20448;-64
2024/01/25 10:08:34;;;;;;;1.37;1.27;;;11.00;99.90;;;;;;5052290;28;20401;-64
2024/01/25 10:11:00;;;;;;;1.10;1.10;;;11.10;99.90;;;;;;5052109;28;20932;-66
2024/01/25 10:13:29;;;;;;;0.90;0.90;;;11.10;99.90;;;;;;5052346;28;20409;-66
2024/01/25 10:15:57;;;;;;;1.90;1.30;;;11.20;99.90;;;;;;5052318;28;20405;-63
2024/01/25 10:18:24;;;;;;;0.77;0.77;;;11.20;99.90;;;;;;5052259;28;20408;-64
2024/01/25 10:20:49;;;;;;;1.50;1.40;;;11.20;99.90;;;;;;5051964;28;20516;-63
2024/01/25 10:23:16;;;;;;;1.63;1.53;;;11.20;99.90;;;;;;5051861;28;20527;-64
2024/01/25 10:25:41;;;;;;;1.40;1.30;;;11.20;99.90;;;;;;5034168;28;20172;-64
2024/01/25 10:28:07;;;;;;;1.03;1.03;;;11.30;99.90;;;;;;5052189;28;20412;-63
2024/01/25 10:30:35;;;;;;;0.50;0.50;;;11.40;99.90;;;;;;5064913;28;20243;-63
2024/01/25 10:33:01;;;;;;;0.43;0.43;;;11.50;99.90;;;;;;5070994;28;20986;-63
2024/01/25 10:35:28;;;;;;;0.63;0.50;;;11.50;99.90;;;;;;5071902;28;20411;-63
2024/01/25 10:37:54;;;;;;;0.53;0.50;;;11.50;99.90;;;;;;5071282;28;20416;-63
2024/01/25 10:40:21;;;;;;;0.60;0.60;;;11.50;99.90;;;;;;5071374;28;20530;-63
2024/01/25 10:42:47;;;;;;;0.70;0.60;;;11.40;99.90;;;;;;5070814;28;20542;-64
2024/01/25 10:45:13;;;;;;;0.50;0.50;;;11.30;99.90;;;;;;5071732;28;20897;-64
2024/01/25 10:47:40;;;;;;;0.50;0.50;;;11.20;99.90;;;;;;5071587;28;20412;-64
2024/01/25 10:50:11;;;;;;;6.03;2.27;;;11.30;99.90;;;;;;5071606;28;20431;-64
2024/01/25 10:52:37;;;;;;;2.50;1.70;;;11.40;99.90;;;;;;5070838;28;20503;-64
2024/01/25 10:55:05;;;;;;;0.87;0.87;;;11.60;99.90;;;;;;5071587;28;20407;-64
2024/01/25 10:57:39;;;;;;;0.63;0.63;;;11.70;99.90;;;;;;5071407;28;20454;-64
2024/01/25 11:00:10;;;;;;;0.53;0.53;;;11.60;99.90;;;;;;5052219;28;20435;-64
2024/01/25 11:02:37;;;;;;;0.50;0.50;;;11.60;99.90;;;;;;5070097;28;20416;-64
2024/01/25 11:05:10;;;;;;;0.87;0.80;;;11.70;99.90;;;;;;5071181;28;20422;-64
2024/01/25 11:07:50;;;;;;;1.30;1.20;;;11.70;99.90;;;;;;5071280;28;20861;-64
2024/01/25 11:10:17;;;;;;;0.97;0.83;;;11.80;99.90;;;;;;5071440;28;20443;-64
2024/01/25 11:13:01;;;;;;;1.00;0.80;;;11.70;99.90;;;;;;5071256;28;20407;-64
2024/01/25 11:15:34;;;;;;;0.50;0.50;;;11.70;99.90;;;;;;5053435;28;20408;-64
2024/01/25 11:18:02;;;;;;;0.53;0.53;;;11.50;99.90;;;;;;5071363;28;20412;-64
2024/01/25 11:20:29;;;;;;;0.73;0.60;;;11.50;99.90;;;;;;5071232;28;20569;-64
2024/01/25 11:23:16;;;;;;;1.60;1.20;;;11.50;99.90;;;;;;5071162;28;20479;-64
2024/01/25 11:25:48;;;;;;;0.47;0.47;;;11.60;99.90;;;;;;5071383;28;20400;-64
2024/01/25 11:28:19;;;;;;;0.40;0.40;;;11.50;99.90;;;;;;5053974;28;20404;-64
2024/01/25 11:30:45;;;;;;;0.50;0.40;;;11.50;99.90;;;;;;5070902;28;20869;-64
2024/01/25 11:33:11;;;;;;;0.70;0.50;;;11.60;99.90;;;;;;5071124;28;20486;-64
2024/01/25 11:35:37;;;;;;;0.40;0.40;;;11.60;99.90;;;;;;5053201;28;20451;-64
2024/01/25 11:38:03;;;;;;;0.90;0.70;;;11.60;99.90;;;;;;5071107;28;20415;-64
2024/01/25 11:40:31;;;;;;;0.80;0.80;;;11.80;99.90;;;;;;5070844;28;20850;-64
2024/01/25 11:42:57;;;;;;;2.83;1.20;;;11.90;99.90;;;;;;5070398;28;20462;-64
2024/01/25 11:45:22;;;;;;;0.93;0.60;;;11.90;99.90;;;;;;5071210;28;20906;-64
2024/01/25 11:47:49;;;;;;;0.73;0.40;;;11.90;99.90;;;;;;5071171;28;20999;-64
2024/01/25 11:50:15;;;;;;;0.40;0.40;;;11.80;99.90;;;;;;5071001;28;20190;-64
2024/01/25 11:52:40;;;;;;;0.30;0.30;;;11.80;99.90;;;;;;5070753;28;20431;-64
2024/01/25 11:55:08;;;;;;;0.40;0.40;;;11.80;99.90;;;;;;5070965;28;20220;-64
2024/01/25 11:57:43;;;;;;;0.70;0.47;;;11.70;99.90;;;;;;5071163;28;20173;-64
2024/01/25 12:00:13;;;;;;;0.40;0.40;;;11.70;99.90;;;;;;5070972;28;20434;-64
2024/01/25 12:02:39;;;;;;;0.77;0.40;;;11.70;99.90;;;;;;5052734;28;20877;-64
2024/01/25 12:05:06;;;;;;;2.30;2.10;;;11.70;99.90;;;;;;5070880;28;20461;-63
2024/01/25 12:07:32;;;;;;;1.47;1.37;;;11.80;99.90;;;;;;5070827;28;20407;-64
2024/01/25 12:10:04;;;;;;;0.80;0.80;;;11.80;99.90;;;;;;5070943;28;20893;-64
2024/01/25 12:12:29;;;;;;;0.40;0.40;;;11.70;99.90;;;;;;5074314;28;20423;-64
2024/01/25 12:15:04;;;;;;;0.97;0.97;;;11.70;99.90;;;;;;5074633;28;20481;-64
2024/01/25 12:17:31;;;;;;;0.60;0.60;;;11.70;99.90;;;;;;5074505;28;20586;-64
2024/01/25 12:19:57;;;;;;;0.70;0.70;;;11.80;99.90;;;;;;5074293;28;20462;-64
2024/01/25 12:22:29;;;;;;;0.40;0.40;;;11.80;99.90;;;;;;5074126;28;20410;-64
2024/01/25 12:24:56;;;;;;;1.10;0.40;;;11.80;99.90;;;;;;5074413;28;20396;-63
2024/01/25 12:27:22;;;;;;;0.40;0.40;;;11.70;99.90;;;;;;5074382;28;20403;-63
2024/01/25 12:29:50;;;;;;;0.60;0.60;;;11.50;99.90;;;;;;5074217;28;20412;-64
2024/01/25 12:32:17;;;;;;;2.53;1.70;;;11.50;99.90;;;;;;5056016;28;20419;-64
2024/01/25 12:34:56;;;;;;;0.93;0.90;;;11.50;99.90;;;;;;5074057;28;20491;-64
2024/01/25 12:37:22;;;;;;;0.97;0.60;;;11.50;99.90;;;;;;5073764;28;20403;-63
2024/01/25 12:39:48;;;;;;;0.40;0.40;;;11.50;99.90;;;;;;5073882;28;20469;-63
2024/01/25 12:42:13;;;;;;;0.40;0.40;;;11.50;99.90;;;;;;5073694;28;20845;-63
2024/01/25 12:44:39;;;;;;;0.70;0.70;;;11.50;99.90;;;;;;5074023;28;20454;-63
2024/01/25 12:47:07;;;;;;;0.63;0.63;;;11.60;99.90;;;;;;5073558;28;20166;-63
2024/01/25 12:49:33;;;;;;;1.53;0.70;;;11.70;99.90;;;;;;5074005;28;20412;-63